RYR88 EGHQ-LPPR
Flight info
| Callsign | RYR88 |
|---|---|
| Flight time | N/A |
| Altitude | 37000 |
| Route | DOLUR DCT ERPOM DCT XIDAN DCT LAFOP DCT KORUL/N0406F230 N728 STG DCT UBANI |
| Aircraft | B738/M-SDE2E3FGHIRWXY/LB1 |
Departure
| Time | 2026-04-26 11:23 |
|---|---|
| Airport | Cornwall Airport Newquay (EGHQ) |
Arrival
| Time | N/A |
|---|---|
| Airport | Francisco de Sá Carneiro Airport (LPPR) |
| Time | Latitude | Longitude | Altitude | Speed | Heading |
|---|---|---|---|---|---|
| 2026-04-26 10:59 | 50.44700 | -5.00525 | 324 ft | 0 kts | 123° |
| 2026-04-26 11:19 | 50.44699 | -5.00525 | 328 ft | 0 kts | 146° |
| 2026-04-26 11:19 | 50.44697 | -5.00527 | 325 ft | 0 kts | 170° |
| 2026-04-26 11:19 | 50.44696 | -5.00526 | 325 ft | 0 kts | 170° |
| 2026-04-26 11:20 | 50.44686 | -5.00528 | 327 ft | 6 kts | 191° |
| 2026-04-26 11:20 | 50.44673 | -5.00574 | 328 ft | 9 kts | 286° |
| 2026-04-26 11:20 | 50.44722 | -5.00719 | 322 ft | 20 kts | 302° |
| 2026-04-26 11:21 | 50.44791 | -5.00898 | 318 ft | 12 kts | 296° |
| 2026-04-26 11:21 | 50.44800 | -5.01041 | 316 ft | 14 kts | 251° |
| 2026-04-26 11:21 | 50.44776 | -5.01104 | 314 ft | 0 kts | 219° |
| 2026-04-26 11:22 | 50.44704 | -5.01150 | 314 ft | 19 kts | 176° |
| 2026-04-26 11:22 | 50.44647 | -5.01046 | 317 ft | 33 kts | 120° |
| 2026-04-26 11:23 | 50.44387 | -5.00350 | 334 ft | 112 kts | 120° |
| 2026-04-26 11:23 | 50.43878 | -4.98985 | 430 ft | 171 kts | 121° |
| 2026-04-26 11:23 | 50.43249 | -4.97258 | 1114 ft | 194 kts | 121° |
| 2026-04-26 11:23 | 50.42379 | -4.95746 | 2337 ft | 183 kts | 155° |
| 2026-04-26 11:24 | 50.41081 | -4.95555 | 3041 ft | 204 kts | 196° |
| 2026-04-26 11:24 | 50.39857 | -4.96846 | 3305 ft | 223 kts | 226° |
| 2026-04-26 11:24 | 50.39167 | -4.98100 | 3525 ft | 233 kts | 233° |
| 2026-04-26 11:24 | 50.38010 | -5.01042 | 4125 ft | 245 kts | 239° |
| 2026-04-26 11:25 | 50.37426 | -5.02610 | 4247 ft | 257 kts | 239° |